sensor_id;sensor_type;location;lat;lon;timestamp;pressure;altitude;pressure_sealevel;temperature
22322;BMP180;11328;53.928;18.522;2023-02-01T00:01:13;98544.00;;;2.90
22322;BMP180;11328;53.928;18.522;2023-02-01T00:03:40;98552.00;;;2.80
22322;BMP180;11328;53.928;18.522;2023-02-01T00:06:08;98563.00;;;2.80
22322;BMP180;11328;53.928;18.522;2023-02-01T00:08:36;98549.00;;;2.80
22322;BMP180;11328;53.928;18.522;2023-02-01T00:11:09;98555.00;;;2.80
22322;BMP180;11328;53.928;18.522;2023-02-01T00:13:40;98550.00;;;2.80
22322;BMP180;11328;53.928;18.522;2023-02-01T00:16:15;98548.00;;;2.80
22322;BMP180;11328;53.928;18.522;2023-02-01T00:18:49;98544.00;;;2.90
22322;BMP180;11328;53.928;18.522;2023-02-01T00:21:20;98542.00;;;2.80
22322;BMP180;11328;53.928;18.522;2023-02-01T00:23:48;98525.00;;;3.00
22322;BMP180;11328;53.928;18.522;2023-02-01T00:26:35;98546.00;;;3.10
22322;BMP180;11328;53.928;18.522;2023-02-01T00:29:12;98544.00;;;3.10
22322;BMP180;11328;53.928;18.522;2023-02-01T00:31:39;98541.00;;;2.90
22322;BMP180;11328;53.928;18.522;2023-02-01T00:34:11;98542.00;;;3.00
22322;BMP180;11328;53.928;18.522;2023-02-01T00:36:39;98549.00;;;3.00
22322;BMP180;11328;53.928;18.522;2023-02-01T00:39:07;98551.00;;;3.00
22322;BMP180;11328;53.928;18.522;2023-02-01T00:41:34;98542.00;;;3.00
22322;BMP180;11328;53.928;18.522;2023-02-01T00:44:01;98549.00;;;3.10
22322;BMP180;11328;53.928;18.522;2023-02-01T00:46:29;98547.00;;;3.10
22322;BMP180;11328;53.928;18.522;2023-02-01T00:48:56;98536.00;;;3.10
22322;BMP180;11328;53.928;18.522;2023-02-01T00:51:27;98544.00;;;3.10
22322;BMP180;11328;53.928;18.522;2023-02-01T00:53:54;98534.00;;;3.20
22322;BMP180;11328;53.928;18.522;2023-02-01T01:10:03;98537.00;;;3.70
22322;BMP180;11328;53.928;18.522;2023-02-01T01:12:30;98531.00;;;3.70
22322;BMP180;11328;53.928;18.522;2023-02-01T01:14:57;98528.00;;;3.60
22322;BMP180;11328;53.928;18.522;2023-02-01T01:17:25;98535.00;;;3.30
22322;BMP180;11328;53.928;18.522;2023-02-01T01:19:52;98460.00;;;3.50
22322;BMP180;11328;53.928;18.522;2023-02-01T01:22:19;98535.00;;;3.50
22322;BMP180;11328;53.928;18.522;2023-02-01T01:24:47;98531.00;;;3.50
22322;BMP180;11328;53.928;18.522;2023-02-01T01:27:14;98525.00;;;3.60
22322;BMP180;11328;53.928;18.522;2023-02-01T01:29:41;98531.00;;;3.60
22322;BMP180;11328;53.928;18.522;2023-02-01T01:32:08;98515.00;;;3.60
22322;BMP180;11328;53.928;18.522;2023-02-01T01:34:36;98511.00;;;3.60
22322;BMP180;11328;53.928;18.522;2023-02-01T01:37:03;98529.00;;;3.60
22322;BMP180;11328;53.928;18.522;2023-02-01T01:39:30;98531.00;;;3.50
22322;BMP180;11328;53.928;18.522;2023-02-01T01:41:57;98521.00;;;3.50
22322;BMP180;11328;53.928;18.522;2023-02-01T01:45:04;98519.00;;;3.60
22322;BMP180;11328;53.928;18.522;2023-02-01T01:47:42;98521.00;;;3.60
22322;BMP180;11328;53.928;18.522;2023-02-01T01:50:17;98523.00;;;3.60
22322;BMP180;11328;53.928;18.522;2023-02-01T01:52:49;98509.00;;;3.60
22322;BMP180;11328;53.928;18.522;2023-02-01T01:55:20;98516.00;;;3.70
22322;BMP180;11328;53.928;18.522;2023-02-01T01:58:00;98508.00;;;3.70
22322;BMP180;11328;53.928;18.522;2023-02-01T02:00:29;98508.00;;;3.70
22322;BMP180;11328;53.928;18.522;2023-02-01T02:03:08;98516.00;;;3.70
22322;BMP180;11328;53.928;18.522;2023-02-01T02:05:38;98544.00;;;3.70
22322;BMP180;11328;53.928;18.522;2023-02-01T02:08:06;98535.00;;;3.70
22322;BMP180;11328;53.928;18.522;2023-02-01T02:10:33;98527.00;;;3.70
22322;BMP180;11328;53.928;18.522;2023-02-01T02:13:19;98521.00;;;3.70
22322;BMP180;11328;53.928;18.522;2023-02-01T02:36:24;98539.00;;;3.50
22322;BMP180;11328;53.928;18.522;2023-02-01T02:45:16;98522.00;;;3.30
22322;BMP180;11328;53.928;18.522;2023-02-01T02:48:42;98539.00;;;3.40
22322;BMP180;11328;53.928;18.522;2023-02-01T02:51:49;98540.00;;;3.40
22322;BMP180;11328;53.928;18.522;2023-02-01T02:54:47;98536.00;;;3.40
22322;BMP180;11328;53.928;18.522;2023-02-01T02:57:39;98536.00;;;3.40
22322;BMP180;11328;53.928;18.522;2023-02-01T03:00:33;98513.00;;;3.20
22322;BMP180;11328;53.928;18.522;2023-02-01T03:03:20;98531.00;;;3.30
22322;BMP180;11328;53.928;18.522;2023-02-01T03:06:14;98549.00;;;3.30
22322;BMP180;11328;53.928;18.522;2023-02-01T03:08:43;98549.00;;;3.30
22322;BMP180;11328;53.928;18.522;2023-02-01T03:11:15;98557.00;;;3.40
22322;BMP180;11328;53.928;18.522;2023-02-01T03:13:57;98559.00;;;3.40
22322;BMP180;11328;53.928;18.522;2023-02-01T03:16:46;98565.00;;;3.50
22322;BMP180;11328;53.928;18.522;2023-02-01T03:19:51;98574.00;;;3.50
22322;BMP180;11328;53.928;18.522;2023-02-01T03:22:27;98569.00;;;3.60
22322;BMP180;11328;53.928;18.522;2023-02-01T03:25:10;98574.00;;;3.60
22322;BMP180;11328;53.928;18.522;2023-02-01T03:28:03;98577.00;;;3.50
22322;BMP180;11328;53.928;18.522;2023-02-01T03:30:52;98578.00;;;3.50
22322;BMP180;11328;53.928;18.522;2023-02-01T03:33:23;98568.00;;;3.50
22322;BMP180;11328;53.928;18.522;2023-02-01T03:43:56;98555.00;;;3.40
22322;BMP180;11328;53.928;18.522;2023-02-01T03:46:42;98557.00;;;3.50
22322;BMP180;11328;53.928;18.522;2023-02-01T03:49:17;98568.00;;;3.40
22322;BMP180;11328;53.928;18.522;2023-02-01T03:51:46;98568.00;;;3.50
22322;BMP180;11328;53.928;18.522;2023-02-01T03:54:15;98556.00;;;3.50
22322;BMP180;11328;53.928;18.522;2023-02-01T03:56:47;98567.00;;;3.40
22322;BMP180;11328;53.928;18.522;2023-02-01T03:59:15;98554.00;;;3.40
22322;BMP180;11328;53.928;18.522;2023-02-01T04:01:43;98551.00;;;3.30
22322;BMP180;11328;53.928;18.522;2023-02-01T04:04:10;98553.00;;;3.30
22322;BMP180;11328;53.928;18.522;2023-02-01T04:06:37;98559.00;;;3.40
22322;BMP180;11328;53.928;18.522;2023-02-01T04:09:06;98561.00;;;3.40
22322;BMP180;11328;53.928;18.522;2023-02-01T04:11:33;98558.00;;;3.30
22322;BMP180;11328;53.928;18.522;2023-02-01T04:14:00;98557.00;;;3.30
22322;BMP180;11328;53.928;18.522;2023-02-01T04:16:32;98561.00;;;3.30
22322;BMP180;11328;53.928;18.522;2023-02-01T04:19:00;98568.00;;;3.20
22322;BMP180;11328;53.928;18.522;2023-02-01T04:21:28;98561.00;;;3.10
22322;BMP180;11328;53.928;18.522;2023-02-01T04:23:55;98573.00;;;3.10
22322;BMP180;11328;53.928;18.522;2023-02-01T04:26:24;98575.00;;;3.20
22322;BMP180;11328;53.928;18.522;2023-02-01T04:28:51;98574.00;;;3.30
22322;BMP180;11328;53.928;18.522;2023-02-01T04:31:20;98573.00;;;3.20
22322;BMP180;11328;53.928;18.522;2023-02-01T04:33:54;98563.00;;;3.20
22322;BMP180;11328;53.928;18.522;2023-02-01T04:36:22;98562.00;;;3.30
22322;BMP180;11328;53.928;18.522;2023-02-01T04:38:50;98556.00;;;3.20
22322;BMP180;11328;53.928;18.522;2023-02-01T04:41:19;98562.00;;;3.20
22322;BMP180;11328;53.928;18.522;2023-02-01T04:43:48;98573.00;;;3.10
22322;BMP180;11328;53.928;18.522;2023-02-01T04:46:16;98565.00;;;3.10
22322;BMP180;11328;53.928;18.522;2023-02-01T04:48:43;98555.00;;;3.10
22322;BMP180;11328;53.928;18.522;2023-02-01T04:51:11;98575.00;;;3.10
22322;BMP180;11328;53.928;18.522;2023-02-01T04:53:39;98569.00;;;3.10
22322;BMP180;11328;53.928;18.522;2023-02-01T04:56:07;98560.00;;;2.90
22322;BMP180;11328;53.928;18.522;2023-02-01T04:58:34;98586.00;;;2.90
22322;BMP180;11328;53.928;18.522;2023-02-01T05:01:06;98584.00;;;3.00
22322;BMP180;11328;53.928;18.522;2023-02-01T05:03:34;98595.00;;;3.10
22322;BMP180;11328;53.928;18.522;2023-02-01T05:06:02;98586.00;;;3.10
22322;BMP180;11328;53.928;18.522;2023-02-01T05:08:32;98586.00;;;3.10
22322;BMP180;11328;53.928;18.522;2023-02-01T05:10:59;98573.00;;;3.10
22322;BMP180;11328;53.928;18.522;2023-02-01T05:13:30;98573.00;;;3.10
22322;BMP180;11328;53.928;18.522;2023-02-01T05:16:16;98570.00;;;3.00
22322;BMP180;11328;53.928;18.522;2023-02-01T05:18:44;98563.00;;;3.00
22322;BMP180;11328;53.928;18.522;2023-02-01T05:21:11;98548.00;;;2.90
22322;BMP180;11328;53.928;18.522;2023-02-01T05:23:39;98562.00;;;2.90
22322;BMP180;11328;53.928;18.522;2023-02-01T05:26:25;98551.00;;;2.80
22322;BMP180;11328;53.928;18.522;2023-02-01T05:28:52;98559.00;;;2.90
22322;BMP180;11328;53.928;18.522;2023-02-01T05:31:19;98555.00;;;2.90
22322;BMP180;11328;53.928;18.522;2023-02-01T05:33:46;98548.00;;;3.00
22322;BMP180;11328;53.928;18.522;2023-02-01T05:36:14;98541.00;;;3.00
22322;BMP180;11328;53.928;18.522;2023-02-01T05:38:42;98547.00;;;3.10
22322;BMP180;11328;53.928;18.522;2023-02-01T05:41:09;98528.00;;;3.00
22322;BMP180;11328;53.928;18.522;2023-02-01T05:43:36;98536.00;;;3.10
22322;BMP180;11328;53.928;18.522;2023-02-01T05:46:04;98537.00;;;3.00
22322;BMP180;11328;53.928;18.522;2023-02-01T05:48:31;98542.00;;;2.90
22322;BMP180;11328;53.928;18.522;2023-02-01T05:50:58;98535.00;;;2.80
22322;BMP180;11328;53.928;18.522;2023-02-01T05:53:25;98542.00;;;2.80
22322;BMP180;11328;53.928;18.522;2023-02-01T05:55:53;98538.00;;;2.70
22322;BMP180;11328;53.928;18.522;2023-02-01T05:58:20;98528.00;;;2.60
22322;BMP180;11328;53.928;18.522;2023-02-01T06:00:48;98534.00;;;2.80
22322;BMP180;11328;53.928;18.522;2023-02-01T06:03:15;98521.00;;;2.80
22322;BMP180;11328;53.928;18.522;2023-02-01T06:05:44;98519.00;;;2.70
22322;BMP180;11328;53.928;18.522;2023-02-01T06:08:12;98521.00;;;2.80
22322;BMP180;11328;53.928;18.522;2023-02-01T06:10:40;98526.00;;;2.80
22322;BMP180;11328;53.928;18.522;2023-02-01T06:13:07;98519.00;;;2.80
22322;BMP180;11328;53.928;18.522;2023-02-01T06:15:35;98542.00;;;2.80
22322;BMP180;11328;53.928;18.522;2023-02-01T06:18:04;98528.00;;;2.90
22322;BMP180;11328;53.928;18.522;2023-02-01T06:20:31;98528.00;;;2.90
22322;BMP180;11328;53.928;18.522;2023-02-01T06:23:01;98530.00;;;2.90
22322;BMP180;11328;53.928;18.522;2023-02-01T06:25:28;98514.00;;;2.90
22322;BMP180;11328;53.928;18.522;2023-02-01T06:27:55;98520.00;;;2.90
22322;BMP180;11328;53.928;18.522;2023-02-01T06:30:26;98516.00;;;2.90
22322;BMP180;11328;53.928;18.522;2023-02-01T06:32:54;98526.00;;;2.90
22322;BMP180;11328;53.928;18.522;2023-02-01T06:35:21;98523.00;;;2.90
22322;BMP180;11328;53.928;18.522;2023-02-01T06:37:49;98537.00;;;3.00
22322;BMP180;11328;53.928;18.522;2023-02-01T06:40:17;98535.00;;;3.00
22322;BMP180;11328;53.928;18.522;2023-02-01T06:42:44;98521.00;;;3.00
22322;BMP180;11328;53.928;18.522;2023-02-01T06:45:11;98523.00;;;3.00
22322;BMP180;11328;53.928;18.522;2023-02-01T06:47:38;98528.00;;;3.00
22322;BMP180;11328;53.928;18.522;2023-02-01T06:50:06;98528.00;;;3.10
22322;BMP180;11328;53.928;18.522;2023-02-01T06:52:35;98523.00;;;3.10
22322;BMP180;11328;53.928;18.522;2023-02-01T06:55:02;98534.00;;;2.80
22322;BMP180;11328;53.928;18.522;2023-02-01T06:57:29;98527.00;;;3.00
22322;BMP180;11328;53.928;18.522;2023-02-01T07:00:00;98544.00;;;3.00
22322;BMP180;11328;53.928;18.522;2023-02-01T07:02:27;98529.00;;;3.10
22322;BMP180;11328;53.928;18.522;2023-02-01T07:04:54;98542.00;;;3.20
22322;BMP180;11328;53.928;18.522;2023-02-01T07:07:21;98548.00;;;3.30
22322;BMP180;11328;53.928;18.522;2023-02-01T07:09:49;98545.00;;;3.30
22322;BMP180;11328;53.928;18.522;2023-02-01T07:12:16;98548.00;;;3.30
22322;BMP180;11328;53.928;18.522;2023-02-01T07:14:45;98546.00;;;3.30
22322;BMP180;11328;53.928;18.522;2023-02-01T07:17:12;98547.00;;;3.40
22322;BMP180;11328;53.928;18.522;2023-02-01T07:19:40;98555.00;;;3.50
22322;BMP180;11328;53.928;18.522;2023-02-01T07:22:07;98549.00;;;3.50
22322;BMP180;11328;53.928;18.522;2023-02-01T07:24:36;98555.00;;;3.50
22322;BMP180;11328;53.928;18.522;2023-02-01T07:27:04;98563.00;;;3.60
22322;BMP180;11328;53.928;18.522;2023-02-01T07:29:31;98568.00;;;3.60
22322;BMP180;11328;53.928;18.522;2023-02-01T07:31:58;98569.00;;;3.50
22322;BMP180;11328;53.928;18.522;2023-02-01T07:34:25;98571.00;;;3.60
22322;BMP180;11328;53.928;18.522;2023-02-01T07:36:53;98573.00;;;3.50
22322;BMP180;11328;53.928;18.522;2023-02-01T07:39:20;98568.00;;;3.60
22322;BMP180;11328;53.928;18.522;2023-02-01T07:41:47;98571.00;;;3.60
22322;BMP180;11328;53.928;18.522;2023-02-01T07:44:15;98575.00;;;3.60
22322;BMP180;11328;53.928;18.522;2023-02-01T07:46:42;98581.00;;;3.70
22322;BMP180;11328;53.928;18.522;2023-02-01T07:49:10;98575.00;;;3.70
22322;BMP180;11328;53.928;18.522;2023-02-01T07:51:37;98576.00;;;3.60
22322;BMP180;11328;53.928;18.522;2023-02-01T07:54:04;98555.00;;;3.80
22322;BMP180;11328;53.928;18.522;2023-02-01T07:56:31;98565.00;;;3.80
22322;BMP180;11328;53.928;18.522;2023-02-01T07:58:59;98552.00;;;3.80
22322;BMP180;11328;53.928;18.522;2023-02-01T08:01:29;98581.00;;;3.80
22322;BMP180;11328;53.928;18.522;2023-02-01T08:04:00;98560.00;;;3.80
22322;BMP180;11328;53.928;18.522;2023-02-01T08:06:32;98548.00;;;3.90
22322;BMP180;11328;53.928;18.522;2023-02-01T08:09:02;98562.00;;;4.00
22322;BMP180;11328;53.928;18.522;2023-02-01T08:11:31;98557.00;;;4.00
22322;BMP180;11328;53.928;18.522;2023-02-01T08:13:59;98554.00;;;4.00
22322;BMP180;11328;53.928;18.522;2023-02-01T08:16:27;98557.00;;;4.00
22322;BMP180;11328;53.928;18.522;2023-02-01T08:19:32;98560.00;;;4.00
22322;BMP180;11328;53.928;18.522;2023-02-01T08:22:05;98575.00;;;4.10
22322;BMP180;11328;53.928;18.522;2023-02-01T08:24:33;98560.00;;;4.00
22322;BMP180;11328;53.928;18.522;2023-02-01T08:27:02;98573.00;;;4.00
22322;BMP180;11328;53.928;18.522;2023-02-01T08:29:29;98561.00;;;4.10
22322;BMP180;11328;53.928;18.522;2023-02-01T08:31:57;98565.00;;;4.10
22322;BMP180;11328;53.928;18.522;2023-02-01T08:34:24;98555.00;;;4.10
22322;BMP180;11328;53.928;18.522;2023-02-01T08:36:53;98567.00;;;4.20
22322;BMP180;11328;53.928;18.522;2023-02-01T08:39:29;98570.00;;;4.20
22322;BMP180;11328;53.928;18.522;2023-02-01T08:41:56;98568.00;;;4.20
22322;BMP180;11328;53.928;18.522;2023-02-01T08:44:42;98567.00;;;4.20
22322;BMP180;11328;53.928;18.522;2023-02-01T08:47:10;98564.00;;;4.20
22322;BMP180;11328;53.928;18.522;2023-02-01T08:49:38;98572.00;;;4.30
22322;BMP180;11328;53.928;18.522;2023-02-01T08:52:05;98574.00;;;4.30
22322;BMP180;11328;53.928;18.522;2023-02-01T08:54:41;98572.00;;;4.50
22322;BMP180;11328;53.928;18.522;2023-02-01T08:57:08;98576.00;;;4.50
22322;BMP180;11328;53.928;18.522;2023-02-01T08:59:36;98575.00;;;4.40
22322;BMP180;11328;53.928;18.522;2023-02-01T09:02:03;98565.00;;;4.30
22322;BMP180;11328;53.928;18.522;2023-02-01T09:04:30;98558.00;;;4.30
22322;BMP180;11328;53.928;18.522;2023-02-01T09:06:58;98556.00;;;4.40
22322;BMP180;11328;53.928;18.522;2023-02-01T09:09:28;98567.00;;;4.50
22322;BMP180;11328;53.928;18.522;2023-02-01T09:11:55;98557.00;;;4.50
22322;BMP180;11328;53.928;18.522;2023-02-01T09:14:22;98551.00;;;4.60
22322;BMP180;11328;53.928;18.522;2023-02-01T09:16:49;98534.00;;;4.60
22322;BMP180;11328;53.928;18.522;2023-02-01T09:19:16;98586.00;;;4.60
22322;BMP180;11328;53.928;18.522;2023-02-01T09:21:53;98554.00;;;4.50
22322;BMP180;11328;53.928;18.522;2023-02-01T09:24:20;98553.00;;;4.60
22322;BMP180;11328;53.928;18.522;2023-02-01T09:26:47;98557.00;;;4.60
22322;BMP180;11328;53.928;18.522;2023-02-01T09:29:14;98543.00;;;4.60
22322;BMP180;11328;53.928;18.522;2023-02-01T09:31:42;98549.00;;;4.70
22322;BMP180;11328;53.928;18.522;2023-02-01T09:34:23;98545.00;;;4.80
22322;BMP180;11328;53.928;18.522;2023-02-01T09:36:50;98541.00;;;4.60
22322;BMP180;11328;53.928;18.522;2023-02-01T09:39:18;98549.00;;;4.70
22322;BMP180;11328;53.928;18.522;2023-02-01T09:47:22;98547.00;;;4.80
22322;BMP180;11328;53.928;18.522;2023-02-01T09:49:59;98539.00;;;4.90
22322;BMP180;11328;53.928;18.522;2023-02-01T09:52:41;98551.00;;;4.90
22322;BMP180;11328;53.928;18.522;2023-02-01T10:22:59;98579.00;;;5.20
22322;BMP180;11328;53.928;18.522;2023-02-01T10:28:58;98564.00;;;5.30
22322;BMP180;11328;53.928;18.522;2023-02-01T10:31:33;98563.00;;;5.40
22322;BMP180;11328;53.928;18.522;2023-02-01T10:34:28;98575.00;;;5.40
22322;BMP180;11328;53.928;18.522;2023-02-01T10:37:08;98556.00;;;5.40
22322;BMP180;11328;53.928;18.522;2023-02-01T10:50:56;98592.00;;;5.80
22322;BMP180;11328;53.928;18.522;2023-02-01T10:53:35;98591.00;;;5.80
22322;BMP180;11328;53.928;18.522;2023-02-01T10:56:09;98589.00;;;5.80
22322;BMP180;11328;53.928;18.522;2023-02-01T10:58:45;98591.00;;;5.60
22322;BMP180;11328;53.928;18.522;2023-02-01T11:55:33;98612.00;;;5.40
22322;BMP180;11328;53.928;18.522;2023-02-01T12:04:07;98594.00;;;5.30
22322;BMP180;11328;53.928;18.522;2023-02-01T12:07:04;98611.00;;;5.10
22322;BMP180;11328;53.928;18.522;2023-02-01T12:09:45;98599.00;;;5.30
22322;BMP180;11328;53.928;18.522;2023-02-01T12:12:28;98594.00;;;5.50
22322;BMP180;11328;53.928;18.522;2023-02-01T12:33:26;98595.00;;;5.40
22322;BMP180;11328;53.928;18.522;2023-02-01T12:39:03;98590.00;;;5.40
22322;BMP180;11328;53.928;18.522;2023-02-01T12:41:58;98584.00;;;5.40
22322;BMP180;11328;53.928;18.522;2023-02-01T12:47:49;98590.00;;;5.40
22322;BMP180;11328;53.928;18.522;2023-02-01T12:50:27;98599.00;;;5.30
22322;BMP180;11328;53.928;18.522;2023-02-01T12:53:14;98597.00;;;5.30
22322;BMP180;11328;53.928;18.522;2023-02-01T12:55:57;98595.00;;;5.20
22322;BMP180;11328;53.928;18.522;2023-02-01T12:58:39;98605.00;;;5.20
22322;BMP180;11328;53.928;18.522;2023-02-01T13:01:38;98597.00;;;5.20
22322;BMP180;11328;53.928;18.522;2023-02-01T13:04:23;98610.00;;;5.20
22322;BMP180;11328;53.928;18.522;2023-02-01T13:07:00;98607.00;;;5.30
22322;BMP180;11328;53.928;18.522;2023-02-01T13:09:49;98615.00;;;5.20
22322;BMP180;11328;53.928;18.522;2023-02-01T13:15:48;98619.00;;;5.10
22322;BMP180;11328;53.928;18.522;2023-02-01T13:18:21;98591.00;;;5.30
22322;BMP180;11328;53.928;18.522;2023-02-01T13:20:59;98618.00;;;5.30
22322;BMP180;11328;53.928;18.522;2023-02-01T13:23:34;98611.00;;;5.10
22322;BMP180;11328;53.928;18.522;2023-02-01T13:26:02;98626.00;;;5.10
22322;BMP180;11328;53.928;18.522;2023-02-01T13:28:45;98633.00;;;5.20
22322;BMP180;11328;53.928;18.522;2023-02-01T13:37:44;98589.00;;;5.10
22322;BMP180;11328;53.928;18.522;2023-02-01T13:40:41;98621.00;;;5.10
22322;BMP180;11328;53.928;18.522;2023-02-01T13:43:23;98609.00;;;5.00
22322;BMP180;11328;53.928;18.522;2023-02-01T13:45:57;98625.00;;;5.00
22322;BMP180;11328;53.928;18.522;2023-02-01T13:51:40;98606.00;;;5.00
22322;BMP180;11328;53.928;18.522;2023-02-01T13:54:24;98623.00;;;5.00
22322;BMP180;11328;53.928;18.522;2023-02-01T13:56:53;98612.00;;;5.00
22322;BMP180;11328;53.928;18.522;2023-02-01T14:13:41;98624.00;;;5.10
22322;BMP180;11328;53.928;18.522;2023-02-01T14:16:16;98619.00;;;5.10
22322;BMP180;11328;53.928;18.522;2023-02-01T14:18:48;98630.00;;;5.10
22322;BMP180;11328;53.928;18.522;2023-02-01T14:21:31;98622.00;;;5.00
22322;BMP180;11328;53.928;18.522;2023-02-01T14:24:02;98618.00;;;5.00
22322;BMP180;11328;53.928;18.522;2023-02-01T14:50:36;98627.00;;;4.80
22322;BMP180;11328;53.928;18.522;2023-02-01T14:56:00;98630.00;;;4.80
22322;BMP180;11328;53.928;18.522;2023-02-01T15:04:12;98616.00;;;4.30
22322;BMP180;11328;53.928;18.522;2023-02-01T15:06:58;98642.00;;;4.20
22322;BMP180;11328;53.928;18.522;2023-02-01T15:09:44;98635.00;;;4.60
22322;BMP180;11328;53.928;18.522;2023-02-01T15:14:48;98639.00;;;4.60
22322;BMP180;11328;53.928;18.522;2023-02-01T15:17:31;98653.00;;;4.50
22322;BMP180;11328;53.928;18.522;2023-02-01T15:20:04;98649.00;;;4.40
22322;BMP180;11328;53.928;18.522;2023-02-01T15:22:39;98651.00;;;4.40
22322;BMP180;11328;53.928;18.522;2023-02-01T15:25:19;98644.00;;;4.40
22322;BMP180;11328;53.928;18.522;2023-02-01T15:27:47;98660.00;;;4.30
22322;BMP180;11328;53.928;18.522;2023-02-01T15:33:07;98668.00;;;4.30
22322;BMP180;11328;53.928;18.522;2023-02-01T15:35:40;98669.00;;;4.30
22322;BMP180;11328;53.928;18.522;2023-02-01T15:44:21;98664.00;;;4.30
22322;BMP180;11328;53.928;18.522;2023-02-01T15:46:34;98669.00;;;4.30
22322;BMP180;11328;53.928;18.522;2023-02-01T15:49:03;98657.00;;;4.30
22322;BMP180;11328;53.928;18.522;2023-02-01T15:51:32;98674.00;;;4.40
22322;BMP180;11328;53.928;18.522;2023-02-01T15:54:05;98662.00;;;4.40
22322;BMP180;11328;53.928;18.522;2023-02-01T15:56:39;98634.00;;;4.40
22322;BMP180;11328;53.928;18.522;2023-02-01T15:59:17;98651.00;;;4.40
22322;BMP180;11328;53.928;18.522;2023-02-01T16:01:46;98670.00;;;4.40
22322;BMP180;11328;53.928;18.522;2023-02-01T16:07:00;98686.00;;;4.60
22322;BMP180;11328;53.928;18.522;2023-02-01T16:09:48;98677.00;;;4.60
22322;BMP180;11328;53.928;18.522;2023-02-01T16:12:46;98687.00;;;4.60
22322;BMP180;11328;53.928;18.522;2023-02-01T16:15:14;98695.00;;;4.60
22322;BMP180;11328;53.928;18.522;2023-02-01T16:17:41;98692.00;;;4.60
22322;BMP180;11328;53.928;18.522;2023-02-01T16:20:11;98698.00;;;4.70
22322;BMP180;11328;53.928;18.522;2023-02-01T16:22:38;98701.00;;;4.70
22322;BMP180;11328;53.928;18.522;2023-02-01T16:25:05;98704.00;;;4.80
22322;BMP180;11328;53.928;18.522;2023-02-01T16:27:32;98697.00;;;4.80
22322;BMP180;11328;53.928;18.522;2023-02-01T16:30:02;98707.00;;;4.80
22322;BMP180;11328;53.928;18.522;2023-02-01T16:32:30;98702.00;;;4.80
22322;BMP180;11328;53.928;18.522;2023-02-01T16:34:57;98700.00;;;4.80
22322;BMP180;11328;53.928;18.522;2023-02-01T16:37:25;98697.00;;;4.80
22322;BMP180;11328;53.928;18.522;2023-02-01T16:39:54;98705.00;;;4.80
22322;BMP180;11328;53.928;18.522;2023-02-01T16:42:21;98701.00;;;4.80
22322;BMP180;11328;53.928;18.522;2023-02-01T16:44:48;98693.00;;;4.80
22322;BMP180;11328;53.928;18.522;2023-02-01T16:47:19;98700.00;;;4.90
22322;BMP180;11328;53.928;18.522;2023-02-01T16:49:49;98688.00;;;4.90
22322;BMP180;11328;53.928;18.522;2023-02-01T16:52:24;98686.00;;;5.00
22322;BMP180;11328;53.928;18.522;2023-02-01T16:54:51;98688.00;;;4.90
22322;BMP180;11328;53.928;18.522;2023-02-01T16:57:20;98680.00;;;4.90
22322;BMP180;11328;53.928;18.522;2023-02-01T16:59:50;98684.00;;;4.90
22322;BMP180;11328;53.928;18.522;2023-02-01T17:02:19;98670.00;;;4.90
22322;BMP180;11328;53.928;18.522;2023-02-01T17:04:47;98679.00;;;4.90
22322;BMP180;11328;53.928;18.522;2023-02-01T17:07:17;98688.00;;;4.90
22322;BMP180;11328;53.928;18.522;2023-02-01T17:09:46;98684.00;;;5.00
22322;BMP180;11328;53.928;18.522;2023-02-01T17:12:26;98680.00;;;5.10
22322;BMP180;11328;53.928;18.522;2023-02-01T17:14:53;98676.00;;;5.10
22322;BMP180;11328;53.928;18.522;2023-02-01T17:17:21;98676.00;;;5.10
22322;BMP180;11328;53.928;18.522;2023-02-01T17:20:05;98687.00;;;5.00
22322;BMP180;11328;53.928;18.522;2023-02-01T17:22:32;98699.00;;;5.00
22322;BMP180;11328;53.928;18.522;2023-02-01T17:25:00;98695.00;;;5.00
22322;BMP180;11328;53.928;18.522;2023-02-01T17:27:26;98695.00;;;5.00
22322;BMP180;11328;53.928;18.522;2023-02-01T17:29:55;98688.00;;;5.00
22322;BMP180;11328;53.928;18.522;2023-02-01T17:32:24;98690.00;;;5.00
22322;BMP180;11328;53.928;18.522;2023-02-01T17:34:52;98694.00;;;5.00
22322;BMP180;11328;53.928;18.522;2023-02-01T17:37:25;98696.00;;;5.10
22322;BMP180;11328;53.928;18.522;2023-02-01T17:39:53;98690.00;;;5.20
22322;BMP180;11328;53.928;18.522;2023-02-01T17:42:25;98697.00;;;5.20
22322;BMP180;11328;53.928;18.522;2023-02-01T17:44:57;98691.00;;;5.20
22322;BMP180;11328;53.928;18.522;2023-02-01T17:47:26;98699.00;;;5.20
22322;BMP180;11328;53.928;18.522;2023-02-01T17:49:53;98693.00;;;5.20
22322;BMP180;11328;53.928;18.522;2023-02-01T17:52:24;98694.00;;;5.30
22322;BMP180;11328;53.928;18.522;2023-02-01T17:54:52;98692.00;;;5.30
22322;BMP180;11328;53.928;18.522;2023-02-01T17:57:20;98693.00;;;5.40
22322;BMP180;11328;53.928;18.522;2023-02-01T17:59:47;98695.00;;;5.40
22322;BMP180;11328;53.928;18.522;2023-02-01T18:02:23;98689.00;;;5.30
22322;BMP180;11328;53.928;18.522;2023-02-01T18:04:51;98691.00;;;5.30
22322;BMP180;11328;53.928;18.522;2023-02-01T18:07:18;98678.00;;;5.40
22322;BMP180;11328;53.928;18.522;2023-02-01T18:09:48;98691.00;;;5.40
22322;BMP180;11328;53.928;18.522;2023-02-01T18:12:22;98688.00;;;5.30
22322;BMP180;11328;53.928;18.522;2023-02-01T18:14:51;98689.00;;;5.20
22322;BMP180;11328;53.928;18.522;2023-02-01T18:17:18;98682.00;;;5.10
22322;BMP180;11328;53.928;18.522;2023-02-01T18:19:45;98678.00;;;5.10
22322;BMP180;11328;53.928;18.522;2023-02-01T18:22:17;98664.00;;;5.10
22322;BMP180;11328;53.928;18.522;2023-02-01T18:24:46;98680.00;;;5.00
22322;BMP180;11328;53.928;18.522;2023-02-01T18:27:13;98683.00;;;5.00
22322;BMP180;11328;53.928;18.522;2023-02-01T18:29:40;98673.00;;;5.00
22322;BMP180;11328;53.928;18.522;2023-02-01T18:32:09;98669.00;;;5.00
22322;BMP180;11328;53.928;18.522;2023-02-01T18:34:36;98672.00;;;5.00
22322;BMP180;11328;53.928;18.522;2023-02-01T18:37:03;98656.00;;;5.00
22322;BMP180;11328;53.928;18.522;2023-02-01T18:39:30;98669.00;;;5.00
22322;BMP180;11328;53.928;18.522;2023-02-01T18:41:58;98674.00;;;4.90
22322;BMP180;11328;53.928;18.522;2023-02-01T18:44:25;98667.00;;;4.90
22322;BMP180;11328;53.928;18.522;2023-02-01T18:46:52;98661.00;;;4.80
22322;BMP180;11328;53.928;18.522;2023-02-01T18:49:19;98662.00;;;4.90
22322;BMP180;11328;53.928;18.522;2023-02-01T18:51:46;98666.00;;;5.00